sensor_id;sensor_type;location;lat;lon;timestamp;pressure;altitude;pressure_sealevel;temperature;humidity
76553;BME280;65395;53.168;18.156;2024-02-21T00:00:53;101451.55;;;5.64;91.03
76553;BME280;65395;53.168;18.156;2024-02-21T00:03:40;101453.40;;;5.65;91.02
76553;BME280;65395;53.168;18.156;2024-02-21T00:06:07;101456.17;;;5.65;91.16
76553;BME280;65395;53.168;18.156;2024-02-21T00:08:34;101452.61;;;5.65;91.19
76553;BME280;65395;53.168;18.156;2024-02-21T00:11:01;101449.33;;;5.66;91.36
76553;BME280;65395;53.168;18.156;2024-02-21T00:13:28;101446.59;;;5.67;91.33
76553;BME280;65395;53.168;18.156;2024-02-21T00:15:55;101451.58;;;5.69;91.42
76553;BME280;65395;53.168;18.156;2024-02-21T00:18:22;101448.12;;;5.71;91.41
76553;BME280;65395;53.168;18.156;2024-02-21T00:20:49;101448.45;;;5.72;91.47
76553;BME280;65395;53.168;18.156;2024-02-21T00:23:16;101443.77;;;5.74;91.38
76553;BME280;65395;53.168;18.156;2024-02-21T00:25:42;101443.56;;;5.74;91.46
76553;BME280;65395;53.168;18.156;2024-02-21T00:28:11;101442.69;;;5.74;91.46
76553;BME280;65395;53.168;18.156;2024-02-21T00:30:38;101444.61;;;5.76;91.57
76553;BME280;65395;53.168;18.156;2024-02-21T00:33:05;101442.91;;;5.77;91.56
76553;BME280;65395;53.168;18.156;2024-02-21T00:35:33;101440.59;;;5.79;91.66
76553;BME280;65395;53.168;18.156;2024-02-21T00:38:00;101429.21;;;5.75;91.65
76553;BME280;65395;53.168;18.156;2024-02-21T00:40:27;101434.81;;;5.78;91.63
76553;BME280;65395;53.168;18.156;2024-02-21T00:42:53;101432.69;;;5.77;91.73
76553;BME280;65395;53.168;18.156;2024-02-21T00:45:20;101431.89;;;5.76;91.68
76553;BME280;65395;53.168;18.156;2024-02-21T00:47:47;101429.06;;;5.75;91.81
76553;BME280;65395;53.168;18.156;2024-02-21T00:50:14;101425.26;;;5.74;91.90
76553;BME280;65395;53.168;18.156;2024-02-21T00:52:41;101422.92;;;5.72;91.91
76553;BME280;65395;53.168;18.156;2024-02-21T00:55:09;101419.83;;;5.72;91.96
76553;BME280;65395;53.168;18.156;2024-02-21T00:57:36;101417.04;;;5.73;92.07
76553;BME280;65395;53.168;18.156;2024-02-21T01:00:03;101414.89;;;5.73;92.00
76553;BME280;65395;53.168;18.156;2024-02-21T01:02:30;101414.75;;;5.74;91.93
76553;BME280;65395;53.168;18.156;2024-02-21T01:04:58;101411.33;;;5.75;91.99
76553;BME280;65395;53.168;18.156;2024-02-21T01:07:25;101406.75;;;5.74;92.03
76553;BME280;65395;53.168;18.156;2024-02-21T01:09:52;101403.84;;;5.73;91.96
76553;BME280;65395;53.168;18.156;2024-02-21T01:12:19;101398.59;;;5.72;92.12
76553;BME280;65395;53.168;18.156;2024-02-21T01:14:46;101401.11;;;5.72;92.15
76553;BME280;65395;53.168;18.156;2024-02-21T01:17:13;101399.82;;;5.73;92.32
76553;BME280;65395;53.168;18.156;2024-02-21T01:19:41;101398.88;;;5.73;92.34
76553;BME280;65395;53.168;18.156;2024-02-21T01:22:08;101391.85;;;5.75;92.51
76553;BME280;65395;53.168;18.156;2024-02-21T01:24:35;101386.10;;;5.76;92.48
76553;BME280;65395;53.168;18.156;2024-02-21T01:27:02;101386.65;;;5.77;92.45
76553;BME280;65395;53.168;18.156;2024-02-21T01:29:29;101383.93;;;5.80;92.42
76553;BME280;65395;53.168;18.156;2024-02-21T01:31:56;101381.46;;;5.82;92.43
76553;BME280;65395;53.168;18.156;2024-02-21T01:34:23;101382.02;;;5.84;92.44
76553;BME280;65395;53.168;18.156;2024-02-21T01:36:50;101377.08;;;5.87;92.49
76553;BME280;65395;53.168;18.156;2024-02-21T01:39:17;101372.73;;;5.88;92.28
76553;BME280;65395;53.168;18.156;2024-02-21T01:41:44;101363.98;;;5.83;92.32
76553;BME280;65395;53.168;18.156;2024-02-21T01:44:11;101373.63;;;5.90;92.40
76553;BME280;65395;53.168;18.156;2024-02-21T01:46:38;101368.34;;;5.90;92.36
76553;BME280;65395;53.168;18.156;2024-02-21T01:49:05;101368.66;;;5.90;92.39
76553;BME280;65395;53.168;18.156;2024-02-21T01:51:32;101364.72;;;5.92;92.42
76553;BME280;65395;53.168;18.156;2024-02-21T01:53:59;101365.48;;;5.92;92.49
76553;BME280;65395;53.168;18.156;2024-02-21T01:56:27;101364.77;;;5.92;92.45
76553;BME280;65395;53.168;18.156;2024-02-21T01:58:55;101364.41;;;5.93;92.45
76553;BME280;65395;53.168;18.156;2024-02-21T02:01:22;101361.13;;;5.94;92.52
76553;BME280;65395;53.168;18.156;2024-02-21T02:03:49;101361.73;;;5.96;92.47
76553;BME280;65395;53.168;18.156;2024-02-21T02:06:16;101359.02;;;5.96;92.38
76553;BME280;65395;53.168;18.156;2024-02-21T02:08:43;101354.84;;;5.96;92.35
76553;BME280;65395;53.168;18.156;2024-02-21T02:11:10;101360.66;;;5.97;92.41
76553;BME280;65395;53.168;18.156;2024-02-21T02:13:39;101353.23;;;5.98;92.39
76553;BME280;65395;53.168;18.156;2024-02-21T02:16:06;101353.75;;;5.97;92.43
76553;BME280;65395;53.168;18.156;2024-02-21T02:18:33;101350.50;;;5.97;92.53
76553;BME280;65395;53.168;18.156;2024-02-21T02:21:00;101346.92;;;5.99;92.49
76553;BME280;65395;53.168;18.156;2024-02-21T02:23:29;101340.70;;;6.00;92.33
76553;BME280;65395;53.168;18.156;2024-02-21T02:25:57;101341.59;;;5.99;92.50
76553;BME280;65395;53.168;18.156;2024-02-21T02:28:24;101338.73;;;5.97;92.50
76553;BME280;65395;53.168;18.156;2024-02-21T02:30:51;101336.90;;;5.97;92.53
76553;BME280;65395;53.168;18.156;2024-02-21T02:33:18;101338.73;;;5.97;92.51
76553;BME280;65395;53.168;18.156;2024-02-21T02:35:46;101337.15;;;5.97;92.50
76553;BME280;65395;53.168;18.156;2024-02-21T02:38:13;101330.98;;;5.97;92.55
76553;BME280;65395;53.168;18.156;2024-02-21T02:40:41;101331.58;;;5.98;92.52
76553;BME280;65395;53.168;18.156;2024-02-21T02:43:08;101333.59;;;5.97;92.51
76553;BME280;65395;53.168;18.156;2024-02-21T02:45:35;101327.59;;;5.98;92.43
76553;BME280;65395;53.168;18.156;2024-02-21T02:48:02;101326.02;;;5.96;92.45
76553;BME280;65395;53.168;18.156;2024-02-21T02:50:29;101323.08;;;5.96;92.45
76553;BME280;65395;53.168;18.156;2024-02-21T02:52:56;101316.07;;;5.97;92.43
76553;BME280;65395;53.168;18.156;2024-02-21T02:55:23;101312.20;;;5.97;92.41
76553;BME280;65395;53.168;18.156;2024-02-21T02:57:50;101309.52;;;5.97;92.49
76553;BME280;65395;53.168;18.156;2024-02-21T03:00:17;101304.95;;;5.99;92.50
76553;BME280;65395;53.168;18.156;2024-02-21T03:02:46;101300.70;;;5.98;92.41
76553;BME280;65395;53.168;18.156;2024-02-21T03:05:18;101299.52;;;5.99;92.48
76553;BME280;65395;53.168;18.156;2024-02-21T03:07:45;101297.91;;;6.00;92.36
76553;BME280;65395;53.168;18.156;2024-02-21T03:10:13;101298.09;;;6.01;92.40
76553;BME280;65395;53.168;18.156;2024-02-21T03:12:40;101299.65;;;6.01;92.34
76553;BME280;65395;53.168;18.156;2024-02-21T03:15:07;101297.44;;;6.00;92.28
76553;BME280;65395;53.168;18.156;2024-02-21T03:17:34;101295.96;;;5.99;92.40
76553;BME280;65395;53.168;18.156;2024-02-21T03:20:02;101293.23;;;5.99;92.36
76553;BME280;65395;53.168;18.156;2024-02-21T03:22:37;101293.60;;;5.99;92.45
76553;BME280;65395;53.168;18.156;2024-02-21T03:25:04;101293.19;;;5.99;92.38
76553;BME280;65395;53.168;18.156;2024-02-21T03:27:32;101287.16;;;5.99;92.47
76553;BME280;65395;53.168;18.156;2024-02-21T03:29:59;101288.95;;;5.99;92.48
76553;BME280;65395;53.168;18.156;2024-02-21T03:32:26;101289.68;;;5.99;92.51
76553;BME280;65395;53.168;18.156;2024-02-21T03:34:54;101287.02;;;5.97;92.48
76553;BME280;65395;53.168;18.156;2024-02-21T03:37:21;101288.58;;;5.95;92.63
76553;BME280;65395;53.168;18.156;2024-02-21T03:39:48;101283.23;;;5.96;92.73
76553;BME280;65395;53.168;18.156;2024-02-21T03:42:15;101282.03;;;5.96;92.64
76553;BME280;65395;53.168;18.156;2024-02-21T03:44:42;101275.54;;;5.96;92.66
76553;BME280;65395;53.168;18.156;2024-02-21T03:47:09;101278.23;;;5.97;92.73
76553;BME280;65395;53.168;18.156;2024-02-21T03:49:38;101275.33;;;5.95;92.65
76553;BME280;65395;53.168;18.156;2024-02-21T03:52:05;101271.83;;;5.95;92.71
76553;BME280;65395;53.168;18.156;2024-02-21T03:54:32;101269.98;;;5.94;92.86
76553;BME280;65395;53.168;18.156;2024-02-21T03:56:59;101264.70;;;5.96;92.87
76553;BME280;65395;53.168;18.156;2024-02-21T03:59:26;101265.46;;;5.97;92.86
76553;BME280;65395;53.168;18.156;2024-02-21T04:01:53;101260.80;;;5.96;92.82
76553;BME280;65395;53.168;18.156;2024-02-21T04:04:20;101262.73;;;5.96;92.92
76553;BME280;65395;53.168;18.156;2024-02-21T04:06:49;101260.58;;;5.96;93.06
76553;BME280;65395;53.168;18.156;2024-02-21T04:09:16;101257.39;;;5.96;92.99
76553;BME280;65395;53.168;18.156;2024-02-21T04:11:43;101260.90;;;5.97;93.11
76553;BME280;65395;53.168;18.156;2024-02-21T04:14:10;101254.36;;;5.96;93.14
76553;BME280;65395;53.168;18.156;2024-02-21T04:16:38;101256.61;;;5.97;93.21
76553;BME280;65395;53.168;18.156;2024-02-21T04:19:06;101250.70;;;5.97;93.18
76553;BME280;65395;53.168;18.156;2024-02-21T04:21:33;101249.03;;;5.97;93.25
76553;BME280;65395;53.168;18.156;2024-02-21T04:24:00;101246.16;;;5.97;93.33
76553;BME280;65395;53.168;18.156;2024-02-21T04:26:28;101243.20;;;5.99;93.44
76553;BME280;65395;53.168;18.156;2024-02-21T04:28:55;101238.00;;;5.98;93.30
76553;BME280;65395;53.168;18.156;2024-02-21T04:31:22;101236.36;;;5.97;93.32
76553;BME280;65395;53.168;18.156;2024-02-21T04:33:49;101233.60;;;5.97;93.44
76553;BME280;65395;53.168;18.156;2024-02-21T04:36:16;101231.13;;;5.97;93.50
76553;BME280;65395;53.168;18.156;2024-02-21T04:38:42;101228.11;;;5.98;93.53
76553;BME280;65395;53.168;18.156;2024-02-21T04:41:09;101228.77;;;5.99;93.59
76553;BME280;65395;53.168;18.156;2024-02-21T04:43:36;101225.30;;;5.99;93.59
76553;BME280;65395;53.168;18.156;2024-02-21T04:46:04;101221.20;;;5.98;93.60
76553;BME280;65395;53.168;18.156;2024-02-21T04:48:31;101217.95;;;5.99;93.69
76553;BME280;65395;53.168;18.156;2024-02-21T04:50:58;101215.89;;;5.99;93.71
76553;BME280;65395;53.168;18.156;2024-02-21T04:53:25;101212.95;;;6.00;93.73
76553;BME280;65395;53.168;18.156;2024-02-21T04:55:52;101213.77;;;6.01;93.85
76553;BME280;65395;53.168;18.156;2024-02-21T04:58:19;101213.14;;;6.02;93.69
76553;BME280;65395;53.168;18.156;2024-02-21T05:00:46;101210.34;;;6.03;93.75
76553;BME280;65395;53.168;18.156;2024-02-21T05:03:13;101207.82;;;6.04;93.73
76553;BME280;65395;53.168;18.156;2024-02-21T05:05:40;101206.52;;;6.03;93.65
76553;BME280;65395;53.168;18.156;2024-02-21T05:08:07;101202.20;;;6.01;93.77
76553;BME280;65395;53.168;18.156;2024-02-21T05:10:36;101201.35;;;5.99;93.76
76553;BME280;65395;53.168;18.156;2024-02-21T05:13:03;101199.13;;;5.98;93.94
76553;BME280;65395;53.168;18.156;2024-02-21T05:15:31;101196.58;;;5.96;93.88
76553;BME280;65395;53.168;18.156;2024-02-21T05:17:59;101191.45;;;5.96;93.95
76553;BME280;65395;53.168;18.156;2024-02-21T05:20:26;101188.71;;;5.94;93.91
76553;BME280;65395;53.168;18.156;2024-02-21T05:22:53;101186.34;;;5.93;94.02
76553;BME280;65395;53.168;18.156;2024-02-21T05:25:19;101183.91;;;5.92;94.12
76553;BME280;65395;53.168;18.156;2024-02-21T05:27:46;101181.08;;;5.92;94.19
76553;BME280;65395;53.168;18.156;2024-02-21T05:30:14;101177.79;;;5.92;94.23
76553;BME280;65395;53.168;18.156;2024-02-21T05:32:41;101172.88;;;5.92;94.17
76553;BME280;65395;53.168;18.156;2024-02-21T05:35:08;101165.73;;;5.91;94.17
76553;BME280;65395;53.168;18.156;2024-02-21T05:37:35;101162.73;;;5.89;94.22
76553;BME280;65395;53.168;18.156;2024-02-21T05:40:02;101162.38;;;5.90;94.22
76553;BME280;65395;53.168;18.156;2024-02-21T05:42:29;101158.02;;;5.89;94.36
76553;BME280;65395;53.168;18.156;2024-02-21T05:44:56;101161.77;;;5.87;94.39
76553;BME280;65395;53.168;18.156;2024-02-21T05:47:23;101164.61;;;5.88;94.38
76553;BME280;65395;53.168;18.156;2024-02-21T05:49:50;101163.57;;;5.89;94.45
76553;BME280;65395;53.168;18.156;2024-02-21T05:52:20;101162.73;;;5.90;94.49
76553;BME280;65395;53.168;18.156;2024-02-21T05:54:46;101158.87;;;5.91;94.52
76553;BME280;65395;53.168;18.156;2024-02-21T05:57:13;101155.96;;;5.92;94.57
76553;BME280;65395;53.168;18.156;2024-02-21T05:59:40;101156.55;;;5.93;94.61
76553;BME280;65395;53.168;18.156;2024-02-21T06:02:08;101154.05;;;5.94;94.67
76553;BME280;65395;53.168;18.156;2024-02-21T06:04:35;101144.23;;;5.95;94.69
76553;BME280;65395;53.168;18.156;2024-02-21T06:07:02;101142.05;;;5.96;94.52
76553;BME280;65395;53.168;18.156;2024-02-21T06:09:29;101145.56;;;5.97;94.64
76553;BME280;65395;53.168;18.156;2024-02-21T06:11:56;101145.83;;;5.97;94.57
76553;BME280;65395;53.168;18.156;2024-02-21T06:14:23;101143.73;;;5.97;94.70
76553;BME280;65395;53.168;18.156;2024-02-21T06:16:50;101140.33;;;5.97;94.69
76553;BME280;65395;53.168;18.156;2024-02-21T06:19:17;101144.00;;;5.97;94.65
76553;BME280;65395;53.168;18.156;2024-02-21T06:21:44;101144.33;;;5.98;94.75
76553;BME280;65395;53.168;18.156;2024-02-21T06:24:11;101140.16;;;6.00;94.85
76553;BME280;65395;53.168;18.156;2024-02-21T06:26:40;101140.96;;;6.02;94.76
76553;BME280;65395;53.168;18.156;2024-02-21T06:29:07;101135.80;;;6.03;94.85
76553;BME280;65395;53.168;18.156;2024-02-21T06:31:35;101137.48;;;6.07;94.86
76553;BME280;65395;53.168;18.156;2024-02-21T06:34:02;101139.19;;;6.10;94.83
76553;BME280;65395;53.168;18.156;2024-02-21T06:36:29;101137.28;;;6.12;94.76
76553;BME280;65395;53.168;18.156;2024-02-21T06:38:56;101132.83;;;6.12;94.62
76553;BME280;65395;53.168;18.156;2024-02-21T06:41:23;101131.89;;;6.12;94.66
76553;BME280;65395;53.168;18.156;2024-02-21T06:43:50;101123.34;;;6.10;94.53
76553;BME280;65395;53.168;18.156;2024-02-21T06:46:26;101125.79;;;6.14;94.67
76553;BME280;65395;53.168;18.156;2024-02-21T06:48:53;101122.00;;;6.17;94.61
76553;BME280;65395;53.168;18.156;2024-02-21T06:51:20;101117.63;;;6.19;94.64
76553;BME280;65395;53.168;18.156;2024-02-21T06:53:47;101118.22;;;6.21;94.42
76553;BME280;65395;53.168;18.156;2024-02-21T06:56:14;101119.33;;;6.21;94.45
76553;BME280;65395;53.168;18.156;2024-02-21T06:58:41;101120.35;;;6.23;94.34
76553;BME280;65395;53.168;18.156;2024-02-21T07:01:08;101118.73;;;6.24;94.41
76553;BME280;65395;53.168;18.156;2024-02-21T07:03:35;101114.94;;;6.26;94.21
76553;BME280;65395;53.168;18.156;2024-02-21T07:06:03;101116.73;;;6.28;94.22
76553;BME280;65395;53.168;18.156;2024-02-21T07:08:31;101114.42;;;6.31;94.24
76553;BME280;65395;53.168;18.156;2024-02-21T07:10:58;101110.77;;;6.34;94.22
76553;BME280;65395;53.168;18.156;2024-02-21T07:13:25;101105.22;;;6.37;94.18
76553;BME280;65395;53.168;18.156;2024-02-21T07:15:51;101097.33;;;6.39;94.05
76553;BME280;65395;53.168;18.156;2024-02-21T07:18:19;101092.54;;;6.41;94.10
76553;BME280;65395;53.168;18.156;2024-02-21T07:20:46;101090.27;;;6.44;94.05
76553;BME280;65395;53.168;18.156;2024-02-21T07:23:13;101084.11;;;6.48;93.93
76553;BME280;65395;53.168;18.156;2024-02-21T07:25:40;101080.83;;;6.50;93.83
76553;BME280;65395;53.168;18.156;2024-02-21T07:28:07;101080.58;;;6.51;93.70
76553;BME280;65395;53.168;18.156;2024-02-21T07:30:35;101078.67;;;6.53;93.75
76553;BME280;65395;53.168;18.156;2024-02-21T07:33:02;101074.19;;;6.55;93.49
76553;BME280;65395;53.168;18.156;2024-02-21T07:35:29;101083.52;;;6.56;93.46
76553;BME280;65395;53.168;18.156;2024-02-21T07:37:56;101085.93;;;6.56;93.56
76553;BME280;65395;53.168;18.156;2024-02-21T07:40:23;101083.00;;;6.58;93.43
76553;BME280;65395;53.168;18.156;2024-02-21T07:42:50;101075.21;;;6.58;93.40
76553;BME280;65395;53.168;18.156;2024-02-21T07:45:17;101066.73;;;6.59;93.48
76553;BME280;65395;53.168;18.156;2024-02-21T07:47:45;101071.45;;;6.59;93.53
76553;BME280;65395;53.168;18.156;2024-02-21T07:50:11;101067.16;;;6.59;93.68
76553;BME280;65395;53.168;18.156;2024-02-21T07:52:38;101068.69;;;6.61;93.64
76553;BME280;65395;53.168;18.156;2024-02-21T07:55:05;101069.38;;;6.63;93.61
76553;BME280;65395;53.168;18.156;2024-02-21T07:57:32;101066.20;;;6.65;93.58
76553;BME280;65395;53.168;18.156;2024-02-21T07:59:59;101063.27;;;6.68;93.43
76553;BME280;65395;53.168;18.156;2024-02-21T08:02:26;101066.42;;;6.72;93.42
76553;BME280;65395;53.168;18.156;2024-02-21T08:04:53;101066.17;;;6.73;93.26
76553;BME280;65395;53.168;18.156;2024-02-21T08:07:20;101059.58;;;6.74;93.45
76553;BME280;65395;53.168;18.156;2024-02-21T08:09:47;101054.18;;;6.74;93.38
76553;BME280;65395;53.168;18.156;2024-02-21T08:12:13;101046.46;;;6.73;93.52
76553;BME280;65395;53.168;18.156;2024-02-21T08:14:40;101045.07;;;6.74;93.62
76553;BME280;65395;53.168;18.156;2024-02-21T08:17:07;101038.80;;;6.75;93.65
76553;BME280;65395;53.168;18.156;2024-02-21T08:19:34;101036.50;;;6.76;93.73
76553;BME280;65395;53.168;18.156;2024-02-21T08:22:01;101032.06;;;6.80;93.99
76553;BME280;65395;53.168;18.156;2024-02-21T08:24:29;101025.42;;;6.82;93.97
76553;BME280;65395;53.168;18.156;2024-02-21T08:26:56;101023.71;;;6.82;93.88
76553;BME280;65395;53.168;18.156;2024-02-21T08:29:23;101024.15;;;6.83;93.84
76553;BME280;65395;53.168;18.156;2024-02-21T08:31:53;101020.48;;;6.86;93.86
76553;BME280;65395;53.168;18.156;2024-02-21T08:34:20;101017.85;;;6.91;93.91
76553;BME280;65395;53.168;18.156;2024-02-21T08:36:47;101017.04;;;6.97;93.97
76553;BME280;65395;53.168;18.156;2024-02-21T08:39:14;101017.65;;;7.00;93.88
76553;BME280;65395;53.168;18.156;2024-02-21T08:41:43;101021.70;;;7.03;93.93
76553;BME280;65395;53.168;18.156;2024-02-21T08:44:10;101030.41;;;7.06;93.81
76553;BME280;65395;53.168;18.156;2024-02-21T08:46:37;101030.95;;;7.06;93.62
76553;BME280;65395;53.168;18.156;2024-02-21T08:49:06;101031.46;;;7.06;93.52
76553;BME280;65395;53.168;18.156;2024-02-21T08:51:34;101030.20;;;7.04;93.43
76553;BME280;65395;53.168;18.156;2024-02-21T08:54:02;101028.71;;;7.01;93.46
76553;BME280;65395;53.168;18.156;2024-02-21T08:56:30;101025.02;;;6.97;93.35
76553;BME280;65395;53.168;18.156;2024-02-21T08:58:58;101023.83;;;6.93;93.29
76553;BME280;65395;53.168;18.156;2024-02-21T09:01:26;101026.48;;;6.89;93.40
76553;BME280;65395;53.168;18.156;2024-02-21T09:03:53;101022.11;;;6.88;93.48
76553;BME280;65395;53.168;18.156;2024-02-21T09:06:20;101023.02;;;6.87;93.50
76553;BME280;65395;53.168;18.156;2024-02-21T09:08:47;101015.45;;;6.86;93.44
76553;BME280;65395;53.168;18.156;2024-02-21T09:11:14;101011.04;;;6.84;93.40
76553;BME280;65395;53.168;18.156;2024-02-21T09:13:41;101012.68;;;6.87;93.47
76553;BME280;65395;53.168;18.156;2024-02-21T09:16:08;101012.50;;;6.90;93.52
76553;BME280;65395;53.168;18.156;2024-02-21T09:18:35;101012.00;;;6.94;93.40
76553;BME280;65395;53.168;18.156;2024-02-21T09:21:02;101011.27;;;6.97;93.32
76553;BME280;65395;53.168;18.156;2024-02-21T09:23:29;101005.05;;;6.98;93.21
76553;BME280;65395;53.168;18.156;2024-02-21T09:25:58;101000.78;;;7.03;93.28
76553;BME280;65395;53.168;18.156;2024-02-21T09:28:27;101005.73;;;7.05;93.24
76553;BME280;65395;53.168;18.156;2024-02-21T09:30:54;101001.59;;;7.06;93.10
76553;BME280;65395;53.168;18.156;2024-02-21T09:33:21;101000.95;;;7.03;93.03
76553;BME280;65395;53.168;18.156;2024-02-21T09:35:48;100999.37;;;7.02;93.08
76553;BME280;65395;53.168;18.156;2024-02-21T09:38:15;100998.48;;;7.03;93.14
76553;BME280;65395;53.168;18.156;2024-02-21T09:40:42;100995.56;;;7.05;93.15
76553;BME280;65395;53.168;18.156;2024-02-21T09:43:09;100999.83;;;7.09;93.13
76553;BME280;65395;53.168;18.156;2024-02-21T09:45:38;100990.55;;;7.10;92.94
76553;BME280;65395;53.168;18.156;2024-02-21T09:48:19;100992.67;;;7.12;92.96
76553;BME280;65395;53.168;18.156;2024-02-21T09:50:51;100993.63;;;7.15;92.96
76553;BME280;65395;53.168;18.156;2024-02-21T09:53:20;100992.32;;;7.15;92.94
76553;BME280;65395;53.168;18.156;2024-02-21T09:55:48;100990.06;;;7.15;92.79
76553;BME280;65395;53.168;18.156;2024-02-21T09:58:15;100982.95;;;7.16;92.84
76553;BME280;65395;53.168;18.156;2024-02-21T10:00:42;100974.50;;;7.16;92.88
76553;BME280;65395;53.168;18.156;2024-02-21T10:03:09;100981.86;;;7.19;93.02
76553;BME280;65395;53.168;18.156;2024-02-21T10:05:37;100977.45;;;7.20;93.13
76553;BME280;65395;53.168;18.156;2024-02-21T10:08:07;100981.40;;;7.22;93.11
76553;BME280;65395;53.168;18.156;2024-02-21T10:10:42;100986.42;;;7.19;93.23
76553;BME280;65395;53.168;18.156;2024-02-21T10:13:10;100986.24;;;7.17;93.38
76553;BME280;65395;53.168;18.156;2024-02-21T10:15:38;100984.30;;;7.16;93.56
76553;BME280;65395;53.168;18.156;2024-02-21T10:18:05;100987.34;;;7.17;93.75
76553;BME280;65395;53.168;18.156;2024-02-21T10:20:33;100990.48;;;7.15;93.86
76553;BME280;65395;53.168;18.156;2024-02-21T10:23:02;100986.48;;;7.14;93.98
76553;BME280;65395;53.168;18.156;2024-02-21T10:25:30;100977.52;;;7.14;93.98
76553;BME280;65395;53.168;18.156;2024-02-21T10:27:57;100981.15;;;7.15;94.16
76553;BME280;65395;53.168;18.156;2024-02-21T10:30:24;100977.39;;;7.15;94.10
76553;BME280;65395;53.168;18.156;2024-02-21T10:32:52;100971.57;;;7.16;94.15
76553;BME280;65395;53.168;18.156;2024-02-21T10:35:29;100971.15;;;7.17;94.32
76553;BME280;65395;53.168;18.156;2024-02-21T10:37:56;100970.31;;;7.19;94.28
76553;BME280;65395;53.168;18.156;2024-02-21T10:40:25;100966.71;;;7.20;94.32
76553;BME280;65395;53.168;18.156;2024-02-21T10:42:58;100964.94;;;7.22;94.29
76553;BME280;65395;53.168;18.156;2024-02-21T10:45:30;100959.14;;;7.26;94.33
76553;BME280;65395;53.168;18.156;2024-02-21T10:48:08;100952.27;;;7.28;94.26
76553;BME280;65395;53.168;18.156;2024-02-21T10:50:53;100948.56;;;7.30;94.22
76553;BME280;65395;53.168;18.156;2024-02-21T10:53:32;100946.67;;;7.30;94.17
76553;BME280;65395;53.168;18.156;2024-02-21T10:56:15;100943.68;;;7.29;94.14
76553;BME280;65395;53.168;18.156;2024-02-21T10:58:43;100933.04;;;7.32;94.22
76553;BME280;65395;53.168;18.156;2024-02-21T11:01:12;100928.50;;;7.36;94.13
76553;BME280;65395;53.168;18.156;2024-02-21T11:03:43;100926.32;;;7.41;94.15
76553;BME280;65395;53.168;18.156;2024-02-21T11:06:12;100923.82;;;7.48;94.26
76553;BME280;65395;53.168;18.156;2024-02-21T11:08:39;100916.70;;;7.53;94.12
76553;BME280;65395;53.168;18.156;2024-02-21T11:11:06;100915.55;;;7.55;93.90
76553;BME280;65395;53.168;18.156;2024-02-21T11:13:37;100913.45;;;7.56;93.96
76553;BME280;65395;53.168;18.156;2024-02-21T11:16:09;100908.07;;;7.59;93.94
76553;BME280;65395;53.168;18.156;2024-02-21T11:18:38;100904.25;;;7.65;93.93
76553;BME280;65395;53.168;18.156;2024-02-21T11:21:06;100896.55;;;7.69;93.68
76553;BME280;65395;53.168;18.156;2024-02-21T11:23:37;100889.98;;;7.72;93.60
76553;BME280;65395;53.168;18.156;2024-02-21T11:26:06;100883.65;;;7.75;93.58
76553;BME280;65395;53.168;18.156;2024-02-21T11:28:34;100879.56;;;7.77;93.51
76553;BME280;65395;53.168;18.156;2024-02-21T11:34:20;100866.97;;;7.83;93.42
76553;BME280;65395;53.168;18.156;2024-02-21T11:36:52;100867.29;;;7.85;93.48
76553;BME280;65395;53.168;18.156;2024-02-21T11:39:23;100859.88;;;7.84;93.23
76553;BME280;65395;53.168;18.156;2024-02-21T11:42:02;100861.20;;;7.85;93.27
76553;BME280;65395;53.168;18.156;2024-02-21T11:44:30;100860.30;;;7.87;93.25
76553;BME280;65395;53.168;18.156;2024-02-21T11:46:58;100857.53;;;7.91;93.33
76553;BME280;65395;53.168;18.156;2024-02-21T11:49:26;100854.90;;;7.96;93.14
76553;BME280;65395;53.168;18.156;2024-02-21T11:52:01;100857.95;;;7.99;93.02
76553;BME280;65395;53.168;18.156;2024-02-21T11:54:31;100856.17;;;7.99;92.64
76553;BME280;65395;53.168;18.156;2024-02-21T11:56:58;100852.91;;;7.98;92.69
76553;BME280;65395;53.168;18.156;2024-02-21T11:59:26;100852.70;;;7.97;92.51
76553;BME280;65395;53.168;18.156;2024-02-21T12:01:53;100855.73;;;7.97;92.62
76553;BME280;65395;53.168;18.156;2024-02-21T12:04:20;100860.46;;;7.94;92.21
76553;BME280;65395;53.168;18.156;2024-02-21T12:06:50;100852.49;;;7.90;92.24
76553;BME280;65395;53.168;18.156;2024-02-21T12:09:19;100846.81;;;7.92;92.57
76553;BME280;65395;53.168;18.156;2024-02-21T12:11:57;100842.23;;;7.94;92.57
76553;BME280;65395;53.168;18.156;2024-02-21T12:14:25;100835.31;;;7.94;92.52
76553;BME280;65395;53.168;18.156;2024-02-21T12:16:52;100834.73;;;7.96;92.59
76553;BME280;65395;53.168;18.156;2024-02-21T12:19:20;100829.49;;;7.97;92.49
76553;BME280;65395;53.168;18.156;2024-02-21T12:21:48;100822.98;;;7.97;92.40
76553;BME280;65395;53.168;18.156;2024-02-21T12:24:22;100828.08;;;7.97;92.32
76553;BME280;65395;53.168;18.156;2024-02-21T12:26:54;100832.70;;;7.96;92.30
76553;BME280;65395;53.168;18.156;2024-02-21T12:29:23;100833.12;;;7.97;92.37
76553;BME280;65395;53.168;18.156;2024-02-21T12:31:52;100830.17;;;7.99;92.35
76553;BME280;65395;53.168;18.156;2024-02-21T12:34:21;100830.29;;;8.00;92.46
76553;BME280;65395;53.168;18.156;2024-02-21T12:36:51;100839.41;;;8.00;92.49
76553;BME280;65395;53.168;18.156;2024-02-21T12:39:19;100840.77;;;7.99;92.32
76553;BME280;65395;53.168;18.156;2024-02-21T12:41:46;100836.27;;;7.98;92.33
76553;BME280;65395;53.168;18.156;2024-02-21T12:44:14;100833.06;;;7.97;92.09
76553;BME280;65395;53.168;18.156;2024-02-21T12:46:43;100826.34;;;7.96;92.23
76553;BME280;65395;53.168;18.156;2024-02-21T12:49:10;100820.61;;;7.94;92.10
76553;BME280;65395;53.168;18.156;2024-02-21T12:51:37;100830.44;;;7.94;92.22
76553;BME280;65395;53.168;18.156;2024-02-21T12:54:06;100830.65;;;7.94;92.13
76553;BME280;65395;53.168;18.156;2024-02-21T12:56:33;100828.08;;;7.94;92.15